createdAt,value
2024-02-24T00:04:17.861Z,1.70
2024-02-24T00:09:21.540Z,6.63
2024-02-24T00:14:25.577Z,4.60
2024-02-24T00:19:29.302Z,3.43
2024-02-24T00:34:40.068Z,3.40
2024-02-24T00:44:47.515Z,2.47
2024-02-24T00:49:51.188Z,5.57
2024-02-24T00:54:55.056Z,6.03
2024-02-24T00:59:58.716Z,4.67
2024-02-24T01:05:03.567Z,7.23
2024-02-24T01:10:09.545Z,6.03
2024-02-24T01:15:13.294Z,4.77
2024-02-24T01:20:18.782Z,5.00
2024-02-24T01:25:22.947Z,2.60
2024-02-24T01:30:28.422Z,6.67
2024-02-24T01:36:15.172Z,4.30
2024-02-24T01:41:18.933Z,5.43
2024-02-24T01:46:22.838Z,4.83
2024-02-24T01:51:28.985Z,1.83
2024-02-24T01:56:34.658Z,4.63
2024-02-24T02:01:39.410Z,5.87
2024-02-24T02:06:43.873Z,3.47
2024-02-24T02:11:56.432Z,3.37
2024-02-24T02:17:08.330Z,2.43
2024-02-24T02:22:16.988Z,3.43
2024-02-24T02:27:20.949Z,3.93
2024-02-24T02:32:24.790Z,3.70
2024-02-24T02:37:28.575Z,4.80
2024-02-24T02:42:32.450Z,6.80
2024-02-24T02:52:42.782Z,2.03
2024-02-24T02:57:46.702Z,1.95
2024-02-24T03:02:52.237Z,7.32
2024-02-24T03:07:56.338Z,3.37
2024-02-24T03:13:00.140Z,5.80
2024-02-24T03:18:04.230Z,4.85
2024-02-24T03:23:08.889Z,4.35
2024-02-24T03:33:16.086Z,4.27
2024-02-24T03:38:19.909Z,2.47
2024-02-24T03:43:23.735Z,4.90
2024-02-24T03:48:27.591Z,7.13
2024-02-24T03:53:31.527Z,3.87
2024-02-24T03:58:35.440Z,5.40
2024-02-24T04:03:39.219Z,6.00
2024-02-24T04:08:43.219Z,8.20
2024-02-24T04:13:47.180Z,6.93
2024-02-24T04:18:51.028Z,9.67
2024-02-24T04:23:55.149Z,8.27
2024-02-24T04:28:59.045Z,6.97
2024-02-24T04:34:02.960Z,7.53
2024-02-24T04:39:06.860Z,11.43
2024-02-24T04:44:10.688Z,10.03
2024-02-24T04:49:14.425Z,11.80
2024-02-24T04:54:18.629Z,12.97
2024-02-24T04:59:22.734Z,11.50
2024-02-24T05:04:27.512Z,12.10
2024-02-24T05:09:31.403Z,11.93
2024-02-24T05:14:35.325Z,11.77
2024-02-24T05:19:39.159Z,10.43
2024-02-24T05:24:44.121Z,14.33
2024-02-24T05:29:48.999Z,14.20
2024-02-24T05:34:53.011Z,15.00
2024-02-24T05:39:57.133Z,12.93
2024-02-24T05:45:00.857Z,14.43
2024-02-24T05:50:05.004Z,12.93
2024-02-24T05:55:12.149Z,14.23
2024-02-24T06:00:16.560Z,11.90
2024-02-24T06:05:20.222Z,12.03
2024-02-24T06:10:23.956Z,12.43
2024-02-24T06:15:27.792Z,10.70
2024-02-24T06:20:33.818Z,9.40
2024-02-24T06:25:37.634Z,8.32
2024-02-24T06:30:41.391Z,10.50
2024-02-24T06:35:45.241Z,13.20
2024-02-24T06:40:49.111Z,12.20
2024-02-24T06:45:52.972Z,17.07
2024-02-24T06:50:56.995Z,14.03
2024-02-24T06:56:07.998Z,9.70
2024-02-24T07:01:11.986Z,13.80
2024-02-24T07:06:15.937Z,12.67
2024-02-24T07:11:19.696Z,16.73
2024-02-24T07:16:23.615Z,16.53
2024-02-24T07:21:27.600Z,15.90
2024-02-24T07:26:31.312Z,14.03
2024-02-24T07:31:35.098Z,12.03
2024-02-24T07:36:38.718Z,9.97
2024-02-24T07:41:43.547Z,11.53
2024-02-24T07:46:47.477Z,8.80
2024-02-24T07:51:52.658Z,8.50
2024-02-24T07:56:57.380Z,8.20
2024-02-24T08:02:01.339Z,7.40
2024-02-24T08:07:05.515Z,6.87
2024-02-24T08:12:09.635Z,6.60
2024-02-24T08:17:13.526Z,6.07
2024-02-24T08:22:17.726Z,7.32
2024-02-24T08:27:21.343Z,11.07
2024-02-24T08:32:25.609Z,10.07
2024-02-24T08:37:29.322Z,9.63
2024-02-24T08:42:33.110Z,9.43
2024-02-24T08:47:37.899Z,8.77
2024-02-24T08:52:46.804Z,7.83
2024-02-24T08:57:54.364Z,9.40
2024-02-24T09:02:58.649Z,9.77
2024-02-24T09:08:02.584Z,9.03
2024-02-24T09:13:06.535Z,8.93
2024-02-24T09:18:10.250Z,6.90
2024-02-24T09:23:14.207Z,7.82
2024-02-24T09:28:18.127Z,7.18
2024-02-24T09:33:22.047Z,10.20
2024-02-24T09:38:25.964Z,9.60
2024-02-24T09:43:30.048Z,8.38
2024-02-24T09:48:34.212Z,8.87
2024-02-24T09:53:40.909Z,7.43
2024-02-24T09:58:46.301Z,7.13
2024-02-24T10:03:51.606Z,7.83
2024-02-24T10:08:55.611Z,6.87
2024-02-24T10:13:59.372Z,8.10
2024-02-24T10:19:06.226Z,8.53
2024-02-24T10:24:10.126Z,6.20
2024-02-24T10:29:17.780Z,7.63
2024-02-24T10:34:22.596Z,6.97
2024-02-24T10:39:28.600Z,6.77
2024-02-24T10:44:34.958Z,6.00
2024-02-24T10:49:39.290Z,6.83
2024-02-24T10:54:44.871Z,6.83
2024-02-24T10:59:51.246Z,6.55
2024-02-24T11:04:55.262Z,6.45
2024-02-24T11:09:59.032Z,6.07
2024-02-24T11:15:03.114Z,5.40
2024-02-24T11:20:08.046Z,6.07
2024-02-24T11:25:19.528Z,5.63
2024-02-24T11:30:40.547Z,5.20
2024-02-24T11:35:44.405Z,5.33
2024-02-24T11:40:49.817Z,4.70
2024-02-24T11:45:55.482Z,6.73
2024-02-24T11:50:59.526Z,6.10
2024-02-24T11:56:04.912Z,5.57
2024-02-24T12:01:08.760Z,5.77
2024-02-24T12:06:13.901Z,5.87
2024-02-24T12:11:18.102Z,5.20
2024-02-24T12:16:23.719Z,7.77
2024-02-24T12:21:30.763Z,13.67
2024-02-24T12:26:34.750Z,8.30
2024-02-24T12:31:38.581Z,6.07
2024-02-24T12:36:42.290Z,7.73
2024-02-24T12:41:47.486Z,8.73
2024-02-24T12:46:51.266Z,10.20
2024-02-24T12:51:55.133Z,7.20
2024-02-24T12:56:59.737Z,7.17
2024-02-24T13:02:03.607Z,6.23
2024-02-24T13:07:07.644Z,7.70
2024-02-24T13:12:11.383Z,6.03
2024-02-24T13:17:16.762Z,7.10
2024-02-24T13:22:20.404Z,4.87
2024-02-24T13:27:24.390Z,7.33
2024-02-24T13:32:28.566Z,7.77
2024-02-24T13:37:32.239Z,6.43
2024-02-24T13:42:36.055Z,6.17
2024-02-24T13:47:39.885Z,6.90
2024-02-24T13:52:43.686Z,5.73
2024-02-24T13:57:47.505Z,5.40
2024-02-24T14:02:52.267Z,5.87
2024-02-24T14:08:40.055Z,4.50
2024-02-24T14:13:43.726Z,5.57
2024-02-24T14:18:48.693Z,4.93
2024-02-24T14:23:53.785Z,5.47
2024-02-24T14:29:01.269Z,7.17
2024-02-24T14:34:06.648Z,10.10
2024-02-24T14:39:12.208Z,11.67
2024-02-24T14:44:16.219Z,8.13
2024-02-24T14:49:19.886Z,5.40
2024-02-24T14:54:23.857Z,6.70
2024-02-24T14:59:27.735Z,5.20
2024-02-24T15:04:31.518Z,7.00
2024-02-24T15:09:35.727Z,6.17
2024-02-24T15:14:39.551Z,7.20
2024-02-24T15:19:47.120Z,7.53
2024-02-24T15:24:50.818Z,13.17
2024-02-24T15:29:54.748Z,11.07
2024-02-24T15:34:58.682Z,8.30
2024-02-24T15:40:09.326Z,7.00
2024-02-24T15:45:13.105Z,10.07
2024-02-24T15:50:17.122Z,9.90
2024-02-24T15:55:20.956Z,6.80
2024-02-24T16:00:24.971Z,8.97
2024-02-24T16:05:28.899Z,11.37
2024-02-24T16:10:32.616Z,15.40
2024-02-24T16:15:36.431Z,9.37
2024-02-24T16:20:42.044Z,9.03
2024-02-24T16:25:46.083Z,12.82
2024-02-24T16:30:49.825Z,11.37
2024-02-24T16:35:53.725Z,9.33
2024-02-24T16:40:57.630Z,8.43
2024-02-24T16:46:02.943Z,6.97
2024-02-24T16:51:06.828Z,10.10
2024-02-24T16:56:10.650Z,10.63
2024-02-24T17:01:14.795Z,9.17
2024-02-24T17:06:18.819Z,10.53
2024-02-24T17:11:22.857Z,8.20
2024-02-24T17:16:26.728Z,7.80
2024-02-24T17:21:31.868Z,8.10
2024-02-24T17:26:36.314Z,11.57
2024-02-24T17:31:39.988Z,9.73
2024-02-24T17:36:48.024Z,9.90
2024-02-24T17:41:51.798Z,15.10
2024-02-24T17:46:55.787Z,8.30
2024-02-24T17:51:59.836Z,8.50
2024-02-24T17:57:05.123Z,7.80
2024-02-24T18:02:08.867Z,12.88
2024-02-24T18:07:12.853Z,10.47
2024-02-24T18:12:16.819Z,10.03
2024-02-24T18:17:20.582Z,8.73
2024-02-24T18:22:24.444Z,11.90
2024-02-24T18:27:30.071Z,14.83
2024-02-24T18:32:34.126Z,11.33
2024-02-24T18:37:39.355Z,13.20
2024-02-24T18:42:43.716Z,11.63
2024-02-24T18:47:47.755Z,11.63
2024-02-24T18:52:52.015Z,13.20
2024-02-24T18:57:56.597Z,9.60
2024-02-24T19:03:00.478Z,8.80
2024-02-24T19:08:04.498Z,8.23
2024-02-24T19:13:08.366Z,9.77
2024-02-24T19:18:15.366Z,10.03
2024-02-24T19:23:19.446Z,10.53
2024-02-24T19:28:23.135Z,8.73
2024-02-24T19:33:28.123Z,10.07
2024-02-24T19:38:31.885Z,10.68
2024-02-24T19:43:35.764Z,10.53
2024-02-24T19:48:39.575Z,11.13
2024-02-24T19:53:43.524Z,11.07
2024-02-24T19:58:54.714Z,10.37
2024-02-24T20:04:00.722Z,9.23
2024-02-24T20:09:04.347Z,9.37
2024-02-24T20:14:08.928Z,10.90
2024-02-24T20:19:12.625Z,7.77
2024-02-24T20:24:16.295Z,10.67
2024-02-24T20:29:19.884Z,8.57
2024-02-24T20:34:23.662Z,9.70
2024-02-24T20:39:28.242Z,8.57
2024-02-24T20:44:31.766Z,9.00
2024-02-24T20:49:35.517Z,7.47
2024-02-24T20:54:40.504Z,10.87
2024-02-24T20:59:45.058Z,11.23
2024-02-24T21:04:48.791Z,7.97
2024-02-24T21:10:52.995Z,9.00
2024-02-24T21:15:56.741Z,10.38
2024-02-24T21:21:00.378Z,8.27
2024-02-24T21:26:10.051Z,10.10
2024-02-24T21:31:13.509Z,10.33
2024-02-24T21:36:18.198Z,11.23
2024-02-24T21:41:22.060Z,10.43
2024-02-24T21:46:26.636Z,8.23
2024-02-24T21:51:30.849Z,7.83
2024-02-24T21:56:36.006Z,9.93
2024-02-24T22:01:39.821Z,8.90
2024-02-24T22:06:44.612Z,9.70
2024-02-24T22:11:48.878Z,10.43
2024-02-24T22:16:53.203Z,8.57
2024-02-24T22:21:57.204Z,10.03
2024-02-24T22:27:01.163Z,6.83
2024-02-24T22:32:05.210Z,7.17
2024-02-24T22:37:08.881Z,7.73
2024-02-24T22:42:12.483Z,10.87
2024-02-24T22:47:16.255Z,8.93
2024-02-24T22:52:19.884Z,8.67
2024-02-24T22:57:23.989Z,4.67
2024-02-24T23:02:28.471Z,8.60
2024-02-24T23:07:32.307Z,7.47
2024-02-24T23:12:36.837Z,6.63
2024-02-24T23:17:41.827Z,8.27
2024-02-24T23:22:45.939Z,8.68
2024-02-24T23:27:49.815Z,3.87
2024-02-24T23:32:53.503Z,7.80
2024-02-24T23:37:59.368Z,7.03
2024-02-24T23:43:03.285Z,7.77
2024-02-24T23:48:07.630Z,6.37
2024-02-24T23:53:11.360Z,8.87
2024-02-24T23:58:15.374Z,8.53
